Time;durP1;ratioP1;P1;durP2;ratioP2;P2;SDS_P1;SDS_P2;PMS_P1;PMS_P2;Temp;Humidity;BMP_temperature;BMP_pressure;BME280_temperature;BME280_humidity;BME280_pressure;Samples;Min_cycle;Max_cycle;Signal;HPM_P1;HPM_P2
2021/02/09 00:02:54;;;;;;;7.55;5.91;;;;;;;18.83;45.77;98851.83;;;;-58
2021/02/09 00:05:54;;;;;;;7.78;6.15;;;;;;;18.81;45.79;98853.39;;;;-57
2021/02/09 00:08:54;;;;;;;6.84;5.75;;;;;;;18.79;45.78;98851.08;;;;-57
2021/02/09 00:11:54;;;;;;;7.03;5.77;;;;;;;18.76;45.75;98853.03;;;;-57
2021/02/09 00:14:54;;;;;;;6.91;5.68;;;;;;;18.73;45.85;98853.09;;;;-58
2021/02/09 00:17:54;;;;;;;7.39;5.74;;;;;;;18.71;45.80;98857.09;;;;-57
2021/02/09 00:20:54;;;;;;;7.98;5.89;;;;;;;18.69;45.79;98861.75;;;;-57
2021/02/09 00:23:54;;;;;;;7.37;6.15;;;;;;;18.66;45.72;98860.10;;;;-57
2021/02/09 00:26:54;;;;;;;6.90;5.63;;;;;;;18.63;45.79;98859.66;;;;-57
2021/02/09 00:29:54;;;;;;;7.23;5.95;;;;;;;18.62;45.79;98858.96;;;;-57
2021/02/09 00:32:54;;;;;;;7.22;5.82;;;;;;;18.60;45.77;98856.00;;;;-58
2021/02/09 00:35:54;;;;;;;6.83;6.06;;;;;;;18.57;45.78;98856.77;;;;-57
2021/02/09 00:38:54;;;;;;;7.03;6.10;;;;;;;18.56;45.67;98856.84;;;;-57
2021/02/09 00:41:54;;;;;;;7.61;6.28;;;;;;;18.53;45.74;98861.28;;;;-58
2021/02/09 00:44:54;;;;;;;7.01;5.92;;;;;;;18.51;45.68;98861.16;;;;-55
2021/02/09 00:47:54;;;;;;;7.75;5.96;;;;;;;18.49;45.77;98862.32;;;;-56
2021/02/09 00:50:54;;;;;;;6.84;5.69;;;;;;;18.47;45.79;98865.19;;;;-56
2021/02/09 00:53:54;;;;;;;7.23;6.03;;;;;;;18.45;45.82;98866.19;;;;-56
2021/02/09 00:56:54;;;;;;;7.21;6.07;;;;;;;18.44;45.73;98867.09;;;;-56
2021/02/09 00:59:54;;;;;;;7.27;5.89;;;;;;;18.42;45.78;98868.27;;;;-56
2021/02/09 01:02:54;;;;;;;7.33;5.95;;;;;;;18.40;45.78;98868.93;;;;-56
2021/02/09 01:05:54;;;;;;;7.61;6.05;;;;;;;18.37;45.81;98869.55;;;;-57
2021/02/09 01:08:54;;;;;;;7.09;5.79;;;;;;;18.36;45.77;98869.48;;;;-56
2021/02/09 01:11:54;;;;;;;8.27;6.35;;;;;;;18.34;45.78;98867.73;;;;-56
2021/02/09 01:14:54;;;;;;;8.07;6.27;;;;;;;18.32;45.79;98869.95;;;;-58
2021/02/09 01:17:54;;;;;;;7.70;6.34;;;;;;;18.30;45.77;98868.17;;;;-57
2021/02/09 01:20:54;;;;;;;7.69;5.82;;;;;;;18.29;45.79;98869.75;;;;-58
2021/02/09 01:23:54;;;;;;;7.69;6.20;;;;;;;18.26;45.80;98870.94;;;;-57
2021/02/09 01:26:54;;;;;;;8.45;6.45;;;;;;;18.24;45.80;98873.47;;;;-58
2021/02/09 01:29:54;;;;;;;6.82;6.02;;;;;;;18.23;45.80;98874.94;;;;-58
2021/02/09 01:32:54;;;;;;;7.77;6.03;;;;;;;18.22;45.83;98873.73;;;;-58
2021/02/09 01:35:55;;;;;;;8.07;6.08;;;;;;;18.20;45.79;98878.06;;;;-58
2021/02/09 01:38:54;;;;;;;7.00;5.75;;;;;;;18.19;45.76;98881.40;;;;-58
2021/02/09 01:41:54;;;;;;;7.81;6.02;;;;;;;18.16;45.78;98883.14;;;;-58
2021/02/09 01:44:54;;;;;;;7.60;6.19;;;;;;;18.14;45.82;98882.60;;;;-58
2021/02/09 01:47:54;;;;;;;8.05;6.23;;;;;;;18.13;45.93;98883.25;;;;-58
2021/02/09 01:50:54;;;;;;;7.79;6.31;;;;;;;18.13;45.75;98880.11;;;;-58
2021/02/09 01:53:56;;;;;;;8.21;6.25;;;;;;;18.10;45.79;98873.25;;;;-58
2021/02/09 01:56:54;;;;;;;8.36;5.97;;;;;;;18.09;45.78;98871.30;;;;-58
2021/02/09 01:59:54;;;;;;;8.25;6.09;;;;;;;18.07;45.89;98868.83;;;;-58
2021/02/09 02:02:54;;;;;;;8.00;6.29;;;;;;;18.06;45.80;98866.42;;;;-58
2021/02/09 02:05:54;;;;;;;7.77;6.31;;;;;;;18.05;45.76;98870.40;;;;-58
2021/02/09 02:08:54;;;;;;;7.40;6.09;;;;;;;18.04;45.82;98870.75;;;;-58
2021/02/09 02:11:54;;;;;;;7.40;6.29;;;;;;;18.01;45.74;98862.98;;;;-58
2021/02/09 02:14:54;;;;;;;6.99;5.93;;;;;;;18.00;45.74;98863.34;;;;-58
2021/02/09 02:17:54;;;;;;;8.79;6.23;;;;;;;17.99;45.75;98864.95;;;;-58
2021/02/09 02:20:54;;;;;;;7.61;6.05;;;;;;;17.98;45.69;98866.53;;;;-58
2021/02/09 02:24:54;;;;;;;7.39;6.16;;;;;;;17.95;45.79;98869.89;;;;-58
2021/02/09 02:27:54;;;;;;;7.94;6.21;;;;;;;17.95;45.78;98869.96;;;;-58
2021/02/09 02:30:54;;;;;;;8.13;6.22;;;;;;;17.93;45.91;98872.76;;;;-58
2021/02/09 02:33:54;;;;;;;8.08;5.85;;;;;;;17.91;45.79;98868.24;;;;-58
2021/02/09 02:36:54;;;;;;;7.28;6.00;;;;;;;17.91;45.75;98865.15;;;;-58
2021/02/09 02:39:54;;;;;;;8.07;6.53;;;;;;;17.89;45.72;98869.98;;;;-58
2021/02/09 02:42:54;;;;;;;7.27;6.01;;;;;;;17.88;45.75;98869.41;;;;-58
2021/02/09 02:45:54;;;;;;;7.99;5.92;;;;;;;17.86;45.73;98856.70;;;;-58
2021/02/09 02:48:54;;;;;;;7.79;6.09;;;;;;;17.85;45.66;98857.61;;;;-58
2021/02/09 02:51:54;;;;;;;7.79;6.08;;;;;;;17.83;45.67;98859.91;;;;-57
2021/02/09 02:54:54;;;;;;;7.83;6.45;;;;;;;17.82;45.67;98861.49;;;;-58
2021/02/09 02:57:54;;;;;;;8.25;6.33;;;;;;;17.81;45.71;98863.63;;;;-57
2021/02/09 03:00:54;;;;;;;7.66;6.12;;;;;;;17.79;45.73;98860.66;;;;-58
2021/02/09 03:03:54;;;;;;;8.56;6.41;;;;;;;17.78;45.72;98861.81;;;;-57
2021/02/09 03:06:54;;;;;;;8.55;6.32;;;;;;;17.77;45.75;98855.42;;;;-57
2021/02/09 03:09:54;;;;;;;8.06;6.39;;;;;;;17.76;45.77;98855.73;;;;-58
2021/02/09 03:12:54;;;;;;;7.51;5.93;;;;;;;17.74;45.71;98851.16;;;;-57
2021/02/09 03:15:54;;;;;;;8.09;6.31;;;;;;;17.73;45.71;98854.17;;;;-58
2021/02/09 03:18:54;;;;;;;8.41;6.25;;;;;;;17.73;45.78;98854.83;;;;-57
2021/02/09 03:21:54;;;;;;;7.65;6.15;;;;;;;17.72;45.71;98858.23;;;;-57
2021/02/09 03:24:54;;;;;;;7.43;6.03;;;;;;;17.70;45.68;98860.05;;;;-57
2021/02/09 03:27:54;;;;;;;8.56;6.50;;;;;;;17.70;45.69;98860.20;;;;-56
2021/02/09 03:30:54;;;;;;;7.88;6.38;;;;;;;17.68;45.70;98862.23;;;;-57
2021/02/09 03:33:54;;;;;;;8.01;6.03;;;;;;;17.66;45.74;98864.47;;;;-57
2021/02/09 03:36:54;;;;;;;8.67;6.74;;;;;;;17.65;45.80;98869.64;;;;-57
2021/02/09 03:39:54;;;;;;;8.31;6.35;;;;;;;17.64;45.69;98869.73;;;;-57
2021/02/09 03:42:54;;;;;;;9.63;6.79;;;;;;;17.62;45.53;98868.72;;;;-57
2021/02/09 03:45:54;;;;;;;8.64;6.56;;;;;;;17.61;45.64;98867.26;;;;-58
2021/02/09 03:48:54;;;;;;;8.39;6.42;;;;;;;17.61;45.72;98871.14;;;;-58
2021/02/09 03:51:54;;;;;;;8.58;6.37;;;;;;;17.60;45.62;98874.64;;;;-58
2021/02/09 03:54:54;;;;;;;7.90;6.11;;;;;;;17.58;45.61;98880.18;;;;-58
2021/02/09 03:57:54;;;;;;;8.40;6.41;;;;;;;17.58;45.61;98881.98;;;;-58
2021/02/09 04:00:54;;;;;;;7.63;6.31;;;;;;;17.56;45.63;98890.09;;;;-58
2021/02/09 04:03:54;;;;;;;8.57;6.57;;;;;;;17.56;45.59;98898.13;;;;-58
2021/02/09 04:06:54;;;;;;;7.69;6.23;;;;;;;17.55;45.53;98904.75;;;;-57
2021/02/09 04:09:54;;;;;;;7.56;6.21;;;;;;;17.53;45.61;98904.28;;;;-57
2021/02/09 04:12:54;;;;;;;7.84;6.24;;;;;;;17.53;45.60;98900.97;;;;-58
2021/02/09 04:15:54;;;;;;;8.68;6.22;;;;;;;17.51;45.56;98905.51;;;;-58
2021/02/09 04:18:54;;;;;;;7.61;6.37;;;;;;;17.51;45.59;98907.88;;;;-58
2021/02/09 04:21:54;;;;;;;7.97;6.32;;;;;;;17.48;45.54;98901.91;;;;-58
2021/02/09 04:24:54;;;;;;;8.41;6.79;;;;;;;17.48;45.64;98904.92;;;;-58
2021/02/09 04:27:54;;;;;;;8.46;6.30;;;;;;;17.47;45.47;98914.49;;;;-58
2021/02/09 04:30:54;;;;;;;7.98;6.60;;;;;;;17.44;45.57;98916.86;;;;-58
2021/02/09 04:33:54;;;;;;;7.57;6.19;;;;;;;17.44;45.53;98922.19;;;;-58
2021/02/09 04:36:54;;;;;;;7.15;6.09;;;;;;;17.43;45.52;98928.30;;;;-58
2021/02/09 04:39:54;;;;;;;8.37;6.47;;;;;;;17.41;45.52;98928.39;;;;-57
2021/02/09 04:42:54;;;;;;;7.40;6.11;;;;;;;17.40;45.66;98930.02;;;;-57
2021/02/09 04:45:54;;;;;;;7.67;6.28;;;;;;;17.40;45.47;98939.66;;;;-58
2021/02/09 04:48:54;;;;;;;8.29;6.28;;;;;;;17.38;45.50;98945.59;;;;-57
2021/02/09 04:51:54;;;;;;;8.17;6.26;;;;;;;17.37;45.53;98952.33;;;;-57
2021/02/09 04:54:54;;;;;;;7.53;6.05;;;;;;;17.36;45.57;98954.98;;;;-57
2021/02/09 04:57:54;;;;;;;8.13;6.35;;;;;;;17.35;45.48;98951.59;;;;-58
2021/02/09 05:00:54;;;;;;;7.48;6.18;;;;;;;17.34;45.71;98957.61;;;;-57
2021/02/09 05:03:54;;;;;;;7.41;6.15;;;;;;;17.32;45.42;98960.84;;;;-57
2021/02/09 05:06:54;;;;;;;7.63;6.09;;;;;;;17.31;45.53;98963.06;;;;-57
2021/02/09 05:09:54;;;;;;;7.63;6.17;;;;;;;17.31;45.49;98966.52;;;;-58
2021/02/09 05:12:54;;;;;;;8.29;6.48;;;;;;;17.30;45.47;98967.20;;;;-56
2021/02/09 05:15:54;;;;;;;7.35;6.02;;;;;;;17.28;45.47;98968.01;;;;-56
2021/02/09 05:18:54;;;;;;;14.52;11.53;;;;;;;16.92;40.38;98972.91;;;;-50
2021/02/09 05:21:54;;;;;;;17.05;13.55;;;;;;;16.31;37.56;98971.45;;;;-52
2021/02/09 05:24:54;;;;;;;18.17;14.93;;;;;;;15.71;36.51;98972.34;;;;-52
2021/02/09 05:27:54;;;;;;;19.83;15.49;;;;;;;15.26;35.97;98981.85;;;;-50
2021/02/09 05:30:54;;;;;;;20.67;15.83;;;;;;;14.92;35.92;98988.11;;;;-53
2021/02/09 05:33:54;;;;;;;21.55;16.28;;;;;;;14.74;35.83;98990.77;;;;-54
2021/02/09 05:36:54;;;;;;;21.70;16.74;;;;;;;14.46;35.74;98989.77;;;;-57
2021/02/09 05:39:54;;;;;;;20.41;16.29;;;;;;;14.31;35.82;98996.16;;;;-54
2021/02/09 05:42:54;;;;;;;21.13;16.15;;;;;;;14.30;36.46;98993.59;;;;-52
2021/02/09 05:45:54;;;;;;;20.90;15.27;;;;;;;14.74;37.52;99001.16;;;;-54
2021/02/09 05:48:54;;;;;;;19.17;13.39;;;;;;;15.04;38.50;99007.58;;;;-54
2021/02/09 05:51:54;;;;;;;18.01;13.24;;;;;;;15.25;39.03;99011.30;;;;-53
2021/02/09 05:54:54;;;;;;;18.73;12.77;;;;;;;15.40;39.50;99010.73;;;;-51
2021/02/09 05:57:54;;;;;;;17.30;12.60;;;;;;;15.52;39.89;99018.27;;;;-51
2021/02/09 06:00:54;;;;;;;16.47;11.95;;;;;;;15.62;40.28;99019.69;;;;-51
2021/02/09 06:03:54;;;;;;;15.37;11.80;;;;;;;15.68;40.63;99022.66;;;;-52
2021/02/09 06:06:54;;;;;;;15.39;11.53;;;;;;;15.75;40.86;99029.80;;;;-52
2021/02/09 06:09:54;;;;;;;14.02;10.95;;;;;;;15.80;41.05;99038.67;;;;-51
2021/02/09 06:12:54;;;;;;;14.52;10.80;;;;;;;15.84;41.17;99032.53;;;;-52
2021/02/09 06:15:54;;;;;;;13.81;10.34;;;;;;;15.89;41.28;99030.49;;;;-52
2021/02/09 06:18:54;;;;;;;12.72;9.83;;;;;;;15.93;41.45;99034.21;;;;-53
2021/02/09 06:21:54;;;;;;;12.51;9.70;;;;;;;15.96;41.33;99037.12;;;;-53
2021/02/09 06:24:54;;;;;;;12.74;10.33;;;;;;;16.01;41.50;99041.05;;;;-53
2021/02/09 06:27:54;;;;;;;12.07;9.09;;;;;;;16.04;41.81;99041.88;;;;-52
2021/02/09 06:30:54;;;;;;;11.83;8.89;;;;;;;16.09;41.95;99047.18;;;;-53
2021/02/09 06:33:54;;;;;;;10.77;8.61;;;;;;;16.14;42.02;99059.12;;;;-53
2021/02/09 06:36:54;;;;;;;10.25;8.37;;;;;;;16.19;42.21;99066.39;;;;-54
2021/02/09 06:39:54;;;;;;;11.06;8.35;;;;;;;16.23;42.33;99067.03;;;;-51
2021/02/09 06:42:54;;;;;;;11.29;7.98;;;;;;;16.27;42.47;99073.00;;;;-52
2021/02/09 06:45:54;;;;;;;9.98;7.93;;;;;;;16.32;42.48;99075.23;;;;-53
2021/02/09 06:48:54;;;;;;;9.77;7.95;;;;;;;16.38;42.59;99080.58;;;;-53
2021/02/09 06:51:54;;;;;;;10.03;7.72;;;;;;;16.42;42.63;99081.84;;;;-53
2021/02/09 06:54:54;;;;;;;8.74;7.23;;;;;;;16.47;42.73;99087.31;;;;-51
2021/02/09 06:57:54;;;;;;;9.91;7.65;;;;;;;16.53;42.80;99086.25;;;;-54
2021/02/09 07:00:54;;;;;;;9.51;7.68;;;;;;;16.58;42.91;99091.72;;;;-52
2021/02/09 07:03:54;;;;;;;9.65;7.63;;;;;;;16.64;42.95;99095.83;;;;-52
2021/02/09 07:06:54;;;;;;;8.83;7.45;;;;;;;16.69;42.99;99094.44;;;;-52
2021/02/09 07:09:54;;;;;;;9.69;7.62;;;;;;;16.75;43.10;99096.69;;;;-54
2021/02/09 07:12:54;;;;;;;8.77;7.14;;;;;;;16.81;43.24;99106.08;;;;-54
2021/02/09 07:15:54;;;;;;;9.29;7.41;;;;;;;16.85;43.17;99104.66;;;;-53
2021/02/09 07:18:54;;;;;;;9.07;7.19;;;;;;;16.89;43.28;99106.26;;;;-54
2021/02/09 07:21:54;;;;;;;8.13;6.97;;;;;;;16.93;43.29;99114.49;;;;-54
2021/02/09 07:24:54;;;;;;;8.45;6.95;;;;;;;16.96;43.47;99123.14;;;;-54
2021/02/09 07:27:54;;;;;;;7.95;6.75;;;;;;;17.00;43.42;99127.91;;;;-54
2021/02/09 07:30:54;;;;;;;9.03;7.20;;;;;;;17.03;43.46;99136.14;;;;-54
2021/02/09 07:33:56;;;;;;;8.33;6.61;;;;;;;17.05;43.40;99138.15;;;;-55
2021/02/09 07:36:54;;;;;;;8.15;6.73;;;;;;;17.06;43.48;99134.59;;;;-54
2021/02/09 07:39:54;;;;;;;8.01;6.68;;;;;;;17.08;43.46;99138.55;;;;-52
2021/02/09 07:42:54;;;;;;;7.85;6.62;;;;;;;17.09;43.42;99141.12;;;;-54
2021/02/09 07:45:54;;;;;;;9.04;6.84;;;;;;;17.10;43.51;99147.28;;;;-51
2021/02/09 07:48:54;;;;;;;8.37;6.71;;;;;;;17.12;43.45;99153.81;;;;-51
2021/02/09 07:51:54;;;;;;;7.89;6.41;;;;;;;17.12;43.50;99152.70;;;;-51
2021/02/09 07:54:54;;;;;;;8.16;6.57;;;;;;;17.14;43.44;99153.31;;;;-52
2021/02/09 07:57:54;;;;;;;8.31;6.76;;;;;;;17.13;43.49;99158.19;;;;-54
2021/02/09 08:00:54;;;;;;;8.52;6.81;;;;;;;17.14;43.43;99152.83;;;;-52
2021/02/09 08:03:54;;;;;;;8.04;6.39;;;;;;;17.14;43.48;99153.02;;;;-54
2021/02/09 08:06:54;;;;;;;7.45;6.21;;;;;;;17.14;43.43;99155.35;;;;-55
2021/02/09 08:09:54;;;;;;;7.06;6.13;;;;;;;17.14;43.50;99163.28;;;;-54
2021/02/09 08:12:54;;;;;;;7.61;6.37;;;;;;;17.15;43.50;99164.17;;;;-54
2021/02/09 08:15:54;;;;;;;7.81;6.26;;;;;;;17.16;43.42;99166.91;;;;-53
2021/02/09 08:18:54;;;;;;;8.01;6.67;;;;;;;17.15;43.54;99168.53;;;;-52
2021/02/09 08:21:54;;;;;;;7.63;6.45;;;;;;;17.15;43.55;99169.03;;;;-52
2021/02/09 08:24:54;;;;;;;7.82;6.49;;;;;;;17.17;43.50;99171.59;;;;-52
2021/02/09 08:27:54;;;;;;;7.85;6.29;;;;;;;17.17;43.49;99172.41;;;;-54
2021/02/09 08:30:54;;;;;;;10.62;6.55;;;;;;;17.18;43.45;99174.52;;;;-54
2021/02/09 08:33:54;;;;;;;8.56;6.19;;;;;;;17.20;43.45;99172.09;;;;-54
2021/02/09 08:36:54;;;;;;;8.12;6.37;;;;;;;17.24;43.45;99176.50;;;;-54
2021/02/09 08:39:54;;;;;;;7.46;6.23;;;;;;;17.28;43.55;99179.88;;;;-54
2021/02/09 08:42:54;;;;;;;7.17;5.95;;;;;;;17.32;43.60;99186.27;;;;-54
2021/02/09 08:45:54;;;;;;;7.24;6.40;;;;;;;17.38;43.51;99188.17;;;;-54
2021/02/09 08:48:54;;;;;;;8.03;6.55;;;;;;;17.43;43.59;99188.87;;;;-51
2021/02/09 08:51:54;;;;;;;8.31;6.26;;;;;;;17.47;43.61;99194.86;;;;-51
2021/02/09 08:54:54;;;;;;;8.17;6.67;;;;;;;17.52;43.61;99197.33;;;;-52
2021/02/09 08:57:54;;;;;;;7.21;6.19;;;;;;;17.57;43.66;99196.64;;;;-52
2021/02/09 09:00:54;;;;;;;8.21;6.46;;;;;;;17.61;43.70;99192.33;;;;-51
2021/02/09 09:03:54;;;;;;;14.76;6.25;;;;;;;17.67;44.00;99194.47;;;;-45
2021/02/09 09:06:54;;;;;;;6.96;5.87;;;;;;;17.73;44.53;99198.33;;;;-48
2021/02/09 09:09:54;;;;;;;7.41;5.99;;;;;;;17.78;44.71;99195.77;;;;-54
2021/02/09 09:12:54;;;;;;;8.13;5.77;;;;;;;17.85;44.46;99197.38;;;;-53
2021/02/09 09:15:54;;;;;;;9.53;6.16;;;;;;;17.92;44.52;99199.52;;;;-49
2021/02/09 09:18:55;;;;;;;8.62;6.30;;;;;;;17.96;44.56;99198.27;;;;-53
2021/02/09 09:21:54;;;;;;;7.27;5.89;;;;;;;18.02;44.67;99203.50;;;;-56
2021/02/09 09:24:54;;;;;;;8.31;5.91;;;;;;;18.05;44.33;99209.22;;;;-58
2021/02/09 09:27:54;;;;;;;6.98;5.83;;;;;;;18.09;44.36;99213.24;;;;-55
2021/02/09 09:30:54;;;;;;;7.81;5.68;;;;;;;18.13;44.41;99218.65;;;;-54
2021/02/09 09:33:54;;;;;;;6.76;5.66;;;;;;;18.17;44.59;99219.09;;;;-59
2021/02/09 09:36:54;;;;;;;7.08;5.78;;;;;;;18.22;44.64;99223.44;;;;-52
2021/02/09 09:39:54;;;;;;;7.87;5.83;;;;;;;18.27;44.61;99220.56;;;;-51
2021/02/09 09:42:54;;;;;;;6.89;5.75;;;;;;;18.30;44.48;99223.95;;;;-52
2021/02/09 09:45:54;;;;;;;6.92;5.83;;;;;;;18.36;44.73;99225.59;;;;-54
2021/02/09 09:48:54;;;;;;;8.91;6.28;;;;;;;18.42;44.27;99231.30;;;;-49
2021/02/09 09:51:54;;;;;;;8.97;5.95;;;;;;;18.43;44.14;99235.97;;;;-49
2021/02/09 09:54:54;;;;;;;12.19;5.80;;;;;;;18.47;44.13;99240.09;;;;-44
2021/02/09 09:57:54;;;;;;;7.19;5.60;;;;;;;18.52;44.28;99245.89;;;;-45
2021/02/09 10:00:54;;;;;;;6.95;5.54;;;;;;;18.54;44.32;99249.75;;;;-54
2021/02/09 10:03:55;;;;;;;6.99;5.79;;;;;;;18.57;43.96;99248.75;;;;-52
2021/02/09 10:06:54;;;;;;;12.61;5.56;;;;;;;18.58;44.26;99248.26;;;;-52
2021/02/09 10:09:54;;;;;;;9.44;5.49;;;;;;;18.63;44.39;99250.16;;;;-51
2021/02/09 10:12:54;;;;;;;9.26;5.64;;;;;;;18.63;44.28;99254.45;;;;-47
2021/02/09 10:15:54;;;;;;;9.47;5.60;;;;;;;18.64;44.15;99258.59;;;;-48
2021/02/09 10:18:54;;;;;;;7.13;6.29;;;;;;;18.66;43.88;99262.63;;;;-56
2021/02/09 10:21:54;;;;;;;9.17;5.92;;;;;;;18.67;44.00;99262.61;;;;-51
2021/02/09 10:24:54;;;;;;;8.11;6.12;;;;;;;18.71;44.04;99266.23;;;;-50
2021/02/09 10:27:54;;;;;;;7.80;5.86;;;;;;;18.71;44.14;99269.72;;;;-42
2021/02/09 10:30:54;;;;;;;7.27;5.66;;;;;;;18.73;44.08;99269.13;;;;-51
2021/02/09 10:33:54;;;;;;;10.10;6.43;;;;;;;18.71;43.32;99271.34;;;;-60
2021/02/09 10:36:54;;;;;;;9.32;6.55;;;;;;;18.73;43.28;99272.20;;;;-59
2021/02/09 10:39:54;;;;;;;8.34;5.57;;;;;;;18.75;43.48;99271.05;;;;-52
2021/02/09 10:42:54;;;;;;;10.15;5.93;;;;;;;18.80;43.52;99273.80;;;;-48
2021/02/09 10:45:54;;;;;;;7.98;6.00;;;;;;;18.83;43.54;99272.88;;;;-49
2021/02/09 10:48:54;;;;;;;7.66;5.68;;;;;;;18.87;43.66;99273.42;;;;-54
2021/02/09 10:51:54;;;;;;;7.97;5.79;;;;;;;18.89;43.74;99270.95;;;;-54
2021/02/09 10:54:54;;;;;;;9.81;5.58;;;;;;;18.92;43.77;99265.32;;;;-61
2021/02/09 10:57:54;;;;;;;9.43;5.59;;;;;;;18.94;43.70;99262.04;;;;-59
2021/02/09 11:00:54;;;;;;;8.26;6.00;;;;;;;18.97;43.65;99262.58;;;;-53
2021/02/09 11:03:54;;;;;;;7.45;5.61;;;;;;;19.02;43.57;99262.52;;;;-56
2021/02/09 11:06:54;;;;;;;8.21;5.99;;;;;;;19.05;43.59;99264.11;;;;-50
2021/02/09 11:09:54;;;;;;;6.57;5.48;;;;;;;19.06;43.76;99259.57;;;;-50
2021/02/09 11:12:54;;;;;;;6.93;5.59;;;;;;;19.10;43.71;99264.97;;;;-52
2021/02/09 11:15:54;;;;;;;6.36;5.17;;;;;;;19.13;43.67;99266.55;;;;-50
2021/02/09 11:18:54;;;;;;;6.67;5.55;;;;;;;19.15;43.77;99266.29;;;;-51
2021/02/09 11:21:54;;;;;;;8.17;5.84;;;;;;;19.16;43.81;99266.10;;;;-48
2021/02/09 11:24:54;;;;;;;6.88;5.59;;;;;;;19.19;43.80;99268.41;;;;-47
2021/02/09 11:27:54;;;;;;;7.36;5.54;;;;;;;19.23;43.75;99268.95;;;;-51
2021/02/09 11:30:54;;;;;;;6.47;5.23;;;;;;;19.25;43.74;99271.77;;;;-50
2021/02/09 11:33:54;;;;;;;6.71;5.67;;;;;;;19.26;43.69;99271.19;;;;-51
2021/02/09 11:36:54;;;;;;;10.51;5.62;;;;;;;19.28;43.46;99267.19;;;;-48
2021/02/09 11:39:55;;;;;;;7.50;5.41;;;;;;;19.30;43.35;99269.50;;;;-48
2021/02/09 11:42:54;;;;;;;7.25;5.73;;;;;;;19.29;43.27;99272.12;;;;-48
2021/02/09 11:45:54;;;;;;;5.88;5.22;;;;;;;19.29;43.25;99273.09;;;;-57
2021/02/09 11:48:54;;;;;;;6.04;5.21;;;;;;;19.29;43.18;99274.48;;;;-48
2021/02/09 11:51:54;;;;;;;6.57;5.39;;;;;;;19.29;43.17;99279.77;;;;-48
2021/02/09 11:54:54;;;;;;;6.67;5.61;;;;;;;19.29;43.22;99284.31;;;;-48
2021/02/09 11:57:54;;;;;;;7.21;5.37;;;;;;;19.29;43.07;99280.97;;;;-48
2021/02/09 12:00:54;;;;;;;6.49;5.25;;;;;;;19.29;43.04;99291.63;;;;-48
2021/02/09 12:03:54;;;;;;;6.01;5.05;;;;;;;19.29;43.09;99290.33;;;;-48
2021/02/09 12:06:54;;;;;;;7.45;5.37;;;;;;;19.31;42.98;99295.41;;;;-48
2021/02/09 12:09:54;;;;;;;5.96;5.20;;;;;;;19.30;43.11;99298.11;;;;-50
2021/02/09 12:12:54;;;;;;;6.11;5.27;;;;;;;19.32;43.01;99298.97;;;;-50
2021/02/09 12:15:54;;;;;;;6.33;5.40;;;;;;;19.32;42.94;99296.95;;;;-56
2021/02/09 12:18:54;;;;;;;5.97;5.17;;;;;;;19.33;42.78;99294.66;;;;-56
2021/02/09 12:21:54;;;;;;;6.60;5.30;;;;;;;19.33;42.94;99301.72;;;;-52
2021/02/09 12:24:54;;;;;;;5.65;4.91;;;;;;;19.33;43.03;99296.78;;;;-53
2021/02/09 12:27:54;;;;;;;5.68;4.97;;;;;;;19.34;42.95;99297.33;;;;-49
2021/02/09 12:30:54;;;;;;;5.73;4.94;;;;;;;19.35;42.87;99290.49;;;;-50
2021/02/09 12:33:54;;;;;;;5.92;5.02;;;;;;;19.35;42.78;99285.30;;;;-50
2021/02/09 12:36:54;;;;;;;6.23;5.32;;;;;;;19.35;42.78;99291.05;;;;-50
2021/02/09 12:39:54;;;;;;;5.97;5.33;;;;;;;19.35;42.75;99288.95;;;;-50
2021/02/09 12:42:54;;;;;;;6.22;5.27;;;;;;;19.35;42.93;99294.31;;;;-50
2021/02/09 12:45:54;;;;;;;6.31;5.39;;;;;;;19.36;42.65;99298.62;;;;-57
2021/02/09 12:48:54;;;;;;;6.70;5.10;;;;;;;19.37;42.65;99298.98;;;;-48
2021/02/09 12:51:54;;;;;;;6.16;5.03;;;;;;;19.37;42.66;99300.70;;;;-53
2021/02/09 12:54:54;;;;;;;5.83;5.22;;;;;;;19.37;42.54;99306.78;;;;-54
2021/02/09 12:57:54;;;;;;;6.57;5.50;;;;;;;19.36;42.15;99306.56;;;;-53
2021/02/09 13:00:55;;;;;;;8.87;5.92;;;;;;;19.36;42.01;99311.85;;;;-48
2021/02/09 13:03:54;;;;;;;8.00;5.84;;;;;;;19.36;41.97;99315.42;;;;-48
2021/02/09 13:06:54;;;;;;;11.07;6.24;;;;;;;19.37;42.16;99319.46;;;;-55
2021/02/09 13:09:54;;;;;;;6.60;4.96;;;;;;;19.37;42.42;99323.29;;;;-56
2021/02/09 13:12:54;;;;;;;6.12;5.22;;;;;;;19.37;42.39;99321.50;;;;-55
2021/02/09 13:15:54;;;;;;;6.23;5.37;;;;;;;19.40;42.42;99328.94;;;;-55
2021/02/09 13:18:54;;;;;;;6.81;5.14;;;;;;;19.39;42.42;99337.96;;;;-55
2021/02/09 13:21:54;;;;;;;6.83;5.01;;;;;;;19.42;42.37;99343.88;;;;-51
2021/02/09 13:24:54;;;;;;;8.56;5.30;;;;;;;19.42;42.46;99338.59;;;;-52
2021/02/09 13:27:54;;;;;;;7.91;5.59;;;;;;;19.46;42.41;99339.84;;;;-57
2021/02/09 13:30:54;;;;;;;7.09;5.15;;;;;;;19.48;42.78;99341.12;;;;-55
2021/02/09 13:33:54;;;;;;;10.90;5.51;;;;;;;19.47;42.33;99346.83;;;;-48
2021/02/09 13:36:54;;;;;;;10.25;5.87;;;;;;;19.47;42.31;99347.70;;;;-57
2021/02/09 13:39:54;;;;;;;9.85;5.65;;;;;;;19.48;42.41;99350.12;;;;-51
2021/02/09 13:42:54;;;;;;;7.24;5.37;;;;;;;19.53;42.50;99352.34;;;;-59
2021/02/09 13:45:54;;;;;;;10.68;5.33;;;;;;;19.55;42.69;99356.80;;;;-51
2021/02/09 13:48:54;;;;;;;11.24;5.77;;;;;;;19.54;42.10;99356.81;;;;-51
2021/02/09 13:51:54;;;;;;;6.44;5.29;;;;;;;19.55;42.14;99355.67;;;;-50
2021/02/09 13:54:54;;;;;;;11.94;5.44;;;;;;;19.57;42.29;99357.44;;;;-48
2021/02/09 13:57:54;;;;;;;7.60;5.23;;;;;;;19.58;42.43;99363.25;;;;-55
2021/02/09 14:00:54;;;;;;;9.01;5.18;;;;;;;19.61;42.31;99363.47;;;;-52
2021/02/09 14:03:54;;;;;;;6.91;5.27;;;;;;;19.61;42.31;99366.55;;;;-51
2021/02/09 14:06:54;;;;;;;8.76;5.45;;;;;;;19.60;42.29;99366.74;;;;-55
2021/02/09 14:09:54;;;;;;;6.39;5.25;;;;;;;19.61;42.31;99370.62;;;;-50
2021/02/09 14:12:54;;;;;;;8.19;4.96;;;;;;;19.64;42.38;99364.34;;;;-52
2021/02/09 14:15:54;;;;;;;8.96;5.22;;;;;;;19.67;42.43;99362.92;;;;-52
2021/02/09 14:18:54;;;;;;;8.00;5.08;;;;;;;19.68;42.49;99358.11;;;;-51
2021/02/09 14:21:54;;;;;;;7.06;5.06;;;;;;;19.71;42.49;99351.83;;;;-52
2021/02/09 14:24:54;;;;;;;8.66;5.30;;;;;;;19.72;42.27;99356.62;;;;-53
2021/02/09 14:27:55;;;;;;;8.37;5.35;;;;;;;19.74;42.31;99354.75;;;;-49
2021/02/09 14:30:54;;;;;;;6.79;5.17;;;;;;;19.76;42.31;99361.05;;;;-51
2021/02/09 14:33:54;;;;;;;7.32;4.99;;;;;;;19.78;42.38;99355.33;;;;-50
2021/02/09 14:36:55;;;;;;;8.04;5.05;;;;;;;19.79;42.48;99356.68;;;;-50
2021/02/09 14:39:54;;;;;;;6.96;5.09;;;;;;;19.80;42.53;99353.36;;;;-49
2021/02/09 14:42:54;;;;;;;5.83;4.84;;;;;;;19.82;42.55;99351.23;;;;-54
2021/02/09 14:45:54;;;;;;;8.24;4.89;;;;;;;19.85;42.53;99352.56;;;;-50
2021/02/09 14:48:54;;;;;;;5.26;4.63;;;;;;;19.85;42.61;99351.25;;;;-56
2021/02/09 14:51:54;;;;;;;7.19;4.98;;;;;;;19.88;42.59;99349.28;;;;-52
2021/02/09 14:54:54;;;;;;;6.19;4.92;;;;;;;19.88;42.51;99352.20;;;;-51
2021/02/09 14:57:54;;;;;;;5.79;4.89;;;;;;;19.89;42.60;99358.75;;;;-53
2021/02/09 15:00:54;;;;;;;6.23;4.95;;;;;;;19.92;42.61;99364.56;;;;-52
2021/02/09 15:03:54;;;;;;;6.59;4.81;;;;;;;19.93;42.71;99368.16;;;;-53
2021/02/09 15:06:54;;;;;;;6.15;4.98;;;;;;;19.95;42.71;99366.51;;;;-50
2021/02/09 15:09:54;;;;;;;5.83;4.80;;;;;;;19.94;42.65;99363.23;;;;-56
2021/02/09 15:12:54;;;;;;;6.42;4.67;;;;;;;19.96;42.79;99365.50;;;;-56
2021/02/09 15:15:54;;;;;;;5.29;4.58;;;;;;;19.96;42.67;99356.80;;;;-57
2021/02/09 15:18:54;;;;;;;6.63;4.70;;;;;;;19.95;42.43;99354.86;;;;-51
2021/02/09 15:21:54;;;;;;;7.06;4.78;;;;;;;19.95;42.29;99356.50;;;;-51
2021/02/09 15:24:54;;;;;;;6.41;4.87;;;;;;;19.94;42.20;99357.16;;;;-50
2021/02/09 15:27:54;;;;;;;5.71;4.63;;;;;;;19.91;42.21;99357.03;;;;-51
2021/02/09 15:30:54;;;;;;;6.68;4.78;;;;;;;19.92;42.07;99363.44;;;;-51
2021/02/09 15:33:54;;;;;;;6.36;4.71;;;;;;;19.91;42.06;99367.86;;;;-51
2021/02/09 15:36:54;;;;;;;7.31;4.80;;;;;;;19.90;41.94;99369.58;;;;-51
2021/02/09 15:39:54;;;;;;;5.71;4.66;;;;;;;19.91;42.01;99372.09;;;;-51
2021/02/09 15:42:54;;;;;;;6.93;4.74;;;;;;;19.89;41.94;99364.94;;;;-51
2021/02/09 15:45:54;;;;;;;6.78;4.87;;;;;;;19.88;42.10;99366.42;;;;-51
2021/02/09 15:48:54;;;;;;;6.64;4.88;;;;;;;19.88;41.93;99366.44;;;;-51
2021/02/09 15:51:54;;;;;;;5.85;4.83;;;;;;;19.88;41.93;99371.64;;;;-51
2021/02/09 15:54:54;;;;;;;6.23;4.47;;;;;;;19.88;42.02;99369.77;;;;-50
2021/02/09 15:57:54;;;;;;;6.21;4.85;;;;;;;19.87;41.96;99366.34;;;;-51
2021/02/09 16:00:54;;;;;;;5.29;4.73;;;;;;;19.87;41.96;99369.77;;;;-48
2021/02/09 16:03:54;;;;;;;5.43;4.74;;;;;;;19.88;42.00;99364.70;;;;-48
2021/02/09 16:06:54;;;;;;;6.49;4.87;;;;;;;19.89;42.09;99359.41;;;;-49
2021/02/09 16:09:54;;;;;;;4.86;4.35;;;;;;;19.89;42.16;99355.66;;;;-51
2021/02/09 16:12:54;;;;;;;6.13;4.47;;;;;;;19.93;42.32;99357.91;;;;-49
2021/02/09 16:15:54;;;;;;;5.26;4.57;;;;;;;19.94;42.18;99355.61;;;;-49
2021/02/09 16:18:54;;;;;;;5.43;4.68;;;;;;;19.95;42.33;99351.38;;;;-51
2021/02/09 16:21:54;;;;;;;5.24;4.49;;;;;;;19.95;42.32;99339.84;;;;-50
2021/02/09 16:24:54;;;;;;;5.18;4.49;;;;;;;19.97;42.46;99348.02;;;;-50
2021/02/09 16:27:54;;;;;;;5.71;4.47;;;;;;;19.98;42.42;99351.58;;;;-51
2021/02/09 16:30:54;;;;;;;5.76;4.57;;;;;;;19.99;42.46;99348.73;;;;-54
2021/02/09 16:33:54;;;;;;;5.43;4.61;;;;;;;20.00;42.44;99354.70;;;;-55
2021/02/09 16:36:54;;;;;;;5.06;4.56;;;;;;;20.02;42.46;99359.72;;;;-52
2021/02/09 16:39:54;;;;;;;5.12;4.43;;;;;;;20.02;42.44;99353.72;;;;-52
2021/02/09 16:42:54;;;;;;;5.77;4.67;;;;;;;20.04;42.41;99347.02;;;;-57
2021/02/09 16:45:54;;;;;;;5.10;4.43;;;;;;;20.06;42.58;99349.27;;;;-55
2021/02/09 16:48:54;;;;;;;6.35;4.53;;;;;;;20.06;42.54;99354.80;;;;-54
2021/02/09 16:51:54;;;;;;;5.41;4.61;;;;;;;20.06;42.48;99366.02;;;;-54
2021/02/09 16:54:55;;;;;;;5.45;4.47;;;;;;;20.06;42.50;99370.39;;;;-53